createdAt,value
2023-04-29T00:04:51.920Z,8.56
2023-04-29T00:09:54.232Z,8.52
2023-04-29T00:14:56.499Z,8.47
2023-04-29T00:19:58.484Z,8.43
2023-04-29T00:25:00.521Z,8.32
2023-04-29T00:30:02.621Z,8.32
2023-04-29T00:35:04.815Z,8.27
2023-04-29T00:40:08.911Z,8.22
2023-04-29T00:45:14.436Z,8.17
2023-04-29T00:50:16.509Z,8.13
2023-04-29T00:55:18.919Z,8.10
2023-04-29T01:00:21.560Z,8.06
2023-04-29T01:05:26.418Z,8.04
2023-04-29T01:10:32.392Z,8.02
2023-04-29T01:15:54.900Z,7.98
2023-04-29T01:20:59.361Z,7.97
2023-04-29T01:26:01.322Z,7.94
2023-04-29T01:31:37.066Z,7.92
2023-04-29T01:36:50.520Z,7.89
2023-04-29T01:42:01.338Z,7.88
2023-04-29T01:47:03.651Z,7.85
2023-04-29T01:52:06.069Z,7.83
2023-04-29T01:57:08.083Z,7.83
2023-04-29T02:07:29.021Z,7.82
2023-04-29T02:12:31.046Z,7.80
2023-04-29T02:17:34.792Z,7.78
2023-04-29T02:22:37.068Z,7.77
2023-04-29T02:27:38.854Z,7.72
2023-04-29T02:32:40.843Z,7.72
2023-04-29T02:37:42.850Z,7.66
2023-04-29T02:42:44.847Z,7.64
2023-04-29T02:47:46.813Z,7.62
2023-04-29T02:52:48.779Z,7.60
2023-04-29T02:57:50.737Z,7.56
2023-04-29T03:02:52.833Z,7.56
2023-04-29T03:07:55.013Z,7.53
2023-04-29T03:12:56.994Z,7.53
2023-04-29T03:18:02.082Z,7.51
2023-04-29T03:23:04.181Z,7.49
2023-04-29T03:28:06.198Z,7.49
2023-04-29T03:33:08.343Z,7.46
2023-04-29T03:38:10.443Z,7.46
2023-04-29T03:43:14.217Z,7.46
2023-04-29T03:48:16.204Z,7.46
2023-04-29T03:53:18.931Z,7.47
2023-04-29T03:58:20.985Z,7.46
2023-04-29T04:03:24.203Z,7.51
2023-04-29T04:08:26.363Z,7.52
2023-04-29T04:13:28.487Z,7.55
2023-04-29T04:18:30.682Z,7.56
2023-04-29T04:23:32.694Z,7.58
2023-04-29T04:28:34.729Z,7.63
2023-04-29T04:33:36.850Z,7.65
2023-04-29T04:38:38.841Z,7.68
2023-04-29T04:43:41.772Z,7.73
2023-04-29T04:48:43.875Z,7.78
2023-04-29T04:53:46.013Z,7.83
2023-04-29T04:58:48.022Z,7.86
2023-04-29T05:03:50.225Z,7.92
2023-04-29T05:08:52.437Z,7.96
2023-04-29T05:13:54.287Z,8.00
2023-04-29T05:18:56.362Z,8.10
2023-04-29T05:23:58.346Z,8.19
2023-04-29T05:29:00.652Z,8.41
2023-04-29T05:34:02.834Z,8.56
2023-04-29T05:39:04.933Z,8.61
2023-04-29T05:44:09.648Z,8.67
2023-04-29T05:49:11.804Z,8.78
2023-04-29T05:54:14.131Z,8.91
2023-04-29T05:59:16.306Z,9.02
2023-04-29T06:04:18.514Z,9.08
2023-04-29T06:09:27.486Z,9.13
2023-04-29T06:14:31.406Z,9.17
2023-04-29T06:19:36.101Z,9.21
2023-04-29T06:24:38.181Z,9.30
2023-04-29T06:29:40.073Z,9.36
2023-04-29T06:34:42.275Z,9.41
2023-04-29T06:39:44.271Z,9.48
2023-04-29T06:44:46.232Z,9.57
2023-04-29T06:49:48.542Z,9.68
2023-04-29T06:54:50.721Z,9.78
2023-04-29T06:59:53.125Z,9.90
2023-04-29T07:04:58.730Z,10.08
2023-04-29T07:10:01.581Z,10.17
2023-04-29T07:15:03.984Z,10.35
2023-04-29T07:20:07.124Z,10.55
2023-04-29T07:25:10.104Z,10.70
2023-04-29T07:30:12.371Z,10.82
2023-04-29T07:35:14.556Z,11.02
2023-04-29T07:40:16.970Z,11.13
2023-04-29T07:45:19.370Z,11.29
2023-04-29T07:50:21.918Z,11.43
2023-04-29T07:55:24.095Z,11.56
2023-04-29T08:00:29.333Z,11.71
2023-04-29T08:05:32.241Z,11.86
2023-04-29T08:10:41.307Z,11.96
2023-04-29T08:15:43.527Z,12.07
2023-04-29T08:20:49.565Z,12.18
2023-04-29T08:25:52.604Z,12.30
2023-04-29T08:30:54.688Z,12.41
2023-04-29T08:36:00.735Z,12.55
2023-04-29T08:41:02.795Z,12.72
2023-04-29T08:46:05.574Z,12.99
2023-04-29T08:51:08.542Z,13.42
2023-04-29T08:56:17.758Z,14.00
2023-04-29T09:01:23.188Z,14.42
2023-04-29T09:06:34.193Z,14.87
2023-04-29T09:11:38.319Z,15.37
2023-04-29T09:16:41.473Z,15.81
2023-04-29T09:21:59.076Z,16.28
2023-04-29T09:27:03.610Z,16.66
2023-04-29T09:32:19.984Z,17.26
2023-04-29T09:37:28.106Z,17.98
2023-04-29T09:42:30.267Z,17.89
2023-04-29T09:47:33.532Z,18.50
2023-04-29T09:52:45.163Z,18.63
2023-04-29T09:57:47.540Z,18.55
2023-04-29T10:02:51.376Z,18.49
2023-04-29T10:07:54.808Z,18.47
2023-04-29T10:12:58.573Z,18.50
2023-04-29T10:18:12.845Z,19.00
2023-04-29T10:23:16.270Z,19.34
2023-04-29T10:28:20.693Z,19.24
2023-04-29T10:33:23.617Z,19.29
2023-04-29T10:38:42.988Z,19.43
2023-04-29T10:43:47.178Z,19.46
2023-04-29T10:48:55.686Z,19.11
2023-04-29T10:54:14.885Z,18.72
2023-04-29T10:59:21.118Z,18.17
2023-04-29T11:04:23.769Z,18.27
2023-04-29T11:09:28.482Z,18.60
2023-04-29T11:14:41.582Z,18.90
2023-04-29T11:19:51.425Z,19.14
2023-04-29T11:25:06.506Z,18.77
2023-04-29T11:30:09.308Z,18.71
2023-04-29T11:35:12.850Z,18.61
2023-04-29T11:40:15.991Z,18.40
2023-04-29T11:45:19.294Z,18.67
2023-04-29T11:50:21.463Z,18.56
2023-04-29T11:55:23.457Z,18.94
2023-04-29T12:00:25.661Z,19.06
2023-04-29T12:05:28.087Z,19.24
2023-04-29T12:10:31.320Z,19.26
2023-04-29T12:15:33.694Z,18.75
2023-04-29T12:20:36.356Z,18.58
2023-04-29T12:25:38.560Z,18.55
2023-04-29T12:30:40.889Z,18.88
2023-04-29T12:35:42.888Z,19.01
2023-04-29T12:40:45.807Z,19.12
2023-04-29T12:45:47.905Z,19.15
2023-04-29T12:50:53.612Z,19.13
2023-04-29T12:55:55.893Z,19.13
2023-04-29T13:00:59.235Z,19.05
2023-04-29T13:06:01.802Z,19.01
2023-04-29T13:11:04.499Z,18.93
2023-04-29T13:16:08.370Z,18.89
2023-04-29T13:21:11.292Z,18.75
2023-04-29T13:26:17.138Z,18.56
2023-04-29T13:31:19.376Z,18.51
2023-04-29T13:36:22.058Z,18.48
2023-04-29T13:41:26.150Z,18.13
2023-04-29T13:46:31.496Z,18.12
2023-04-29T13:52:16.860Z,18.25
2023-04-29T13:57:47.485Z,18.23
2023-04-29T14:02:24.176Z,18.26
2023-04-29T14:07:27.421Z,18.26
2023-04-29T14:12:30.424Z,18.24
2023-04-29T14:17:32.805Z,18.27
2023-04-29T14:22:42.756Z,18.35
2023-04-29T14:27:52.859Z,18.33
2023-04-29T14:32:55.134Z,18.36
2023-04-29T14:37:57.486Z,18.40
2023-04-29T14:43:02.817Z,18.40
2023-04-29T14:48:06.605Z,18.32
2023-04-29T14:53:11.581Z,18.31
2023-04-29T14:58:14.461Z,18.34
2023-04-29T15:03:22.107Z,18.32
2023-04-29T15:08:25.620Z,18.29
2023-04-29T15:13:29.396Z,18.21
2023-04-29T15:18:32.336Z,18.16
2023-04-29T15:23:34.878Z,18.08
2023-04-29T15:28:37.093Z,18.05
2023-04-29T15:33:39.317Z,18.00
2023-04-29T15:38:41.774Z,17.93
2023-04-29T15:43:43.754Z,17.94
2023-04-29T15:48:46.362Z,17.92
2023-04-29T15:53:49.712Z,17.88
2023-04-29T15:58:55.882Z,17.87
2023-04-29T16:03:58.349Z,17.85
2023-04-29T16:09:01.473Z,17.83
2023-04-29T16:14:04.799Z,17.80
2023-04-29T16:19:11.369Z,17.74
2023-04-29T16:24:18.465Z,17.68
2023-04-29T16:29:29.364Z,17.65
2023-04-29T16:34:32.390Z,17.62
2023-04-29T16:39:35.798Z,17.56
2023-04-29T16:44:38.067Z,17.49
2023-04-29T16:49:41.340Z,17.43
2023-04-29T16:54:54.439Z,17.37
2023-04-29T16:59:57.643Z,17.31
2023-04-29T17:04:59.934Z,17.27
2023-04-29T17:10:02.215Z,17.20
2023-04-29T17:15:06.018Z,17.17
2023-04-29T17:20:09.001Z,17.09
2023-04-29T17:25:15.699Z,17.02
2023-04-29T17:30:18.333Z,16.97
2023-04-29T17:35:21.500Z,16.90
2023-04-29T17:40:25.317Z,16.87
2023-04-29T17:45:29.154Z,16.81
2023-04-29T17:50:34.857Z,16.75
2023-04-29T17:56:00.178Z,16.68
2023-04-29T18:01:07.800Z,16.60
2023-04-29T18:06:12.456Z,16.50
2023-04-29T18:11:15.343Z,16.43
2023-04-29T18:16:19.851Z,16.36
2023-04-29T18:21:28.179Z,16.25
2023-04-29T18:26:30.727Z,16.17
2023-04-29T18:31:33.792Z,16.12
2023-04-29T18:36:36.439Z,16.02
2023-04-29T18:41:38.828Z,15.95
2023-04-29T18:46:42.239Z,15.87
2023-04-29T18:51:48.491Z,15.78
2023-04-29T18:56:52.731Z,15.73
2023-04-29T19:02:01.450Z,15.62
2023-04-29T19:07:07.610Z,15.56
2023-04-29T19:12:11.354Z,15.47
2023-04-29T19:17:14.456Z,15.36
2023-04-29T19:22:18.117Z,15.29
2023-04-29T19:27:20.260Z,15.25
2023-04-29T19:32:22.973Z,15.23
2023-04-29T19:37:26.570Z,15.19
2023-04-29T19:42:28.986Z,15.06
2023-04-29T19:47:34.391Z,15.03
2023-04-29T19:52:37.115Z,14.99
2023-04-29T19:57:42.388Z,14.95
2023-04-29T20:02:45.654Z,14.83
2023-04-29T20:07:54.568Z,14.82
2023-04-29T20:12:56.970Z,14.77
2023-04-29T20:17:59.781Z,14.72
2023-04-29T20:23:02.377Z,14.68
2023-04-29T20:28:05.259Z,14.62
2023-04-29T20:33:09.306Z,14.56
2023-04-29T20:38:11.568Z,14.52
2023-04-29T20:43:13.871Z,14.48
2023-04-29T20:48:16.335Z,14.40
2023-04-29T20:53:18.395Z,14.37
2023-04-29T20:58:20.445Z,14.33
2023-04-29T21:03:23.141Z,14.26
2023-04-29T21:08:25.675Z,14.21
2023-04-29T21:13:28.270Z,14.17
2023-04-29T21:18:31.251Z,14.14
2023-04-29T21:23:51.553Z,14.08
2023-04-29T21:29:02.772Z,14.02
2023-04-29T21:34:20.733Z,13.99
2023-04-29T21:39:52.565Z,13.93
2023-04-29T21:45:18.340Z,13.88
2023-04-29T21:50:49.714Z,13.84
2023-04-29T21:55:51.991Z,13.78
2023-04-29T22:01:03.436Z,13.75
2023-04-29T22:06:05.753Z,13.69
2023-04-29T22:11:07.801Z,13.67
2023-04-29T22:16:10.050Z,13.66
2023-04-29T22:21:12.350Z,13.63
2023-04-29T22:26:14.479Z,13.60
2023-04-29T22:31:16.521Z,13.58
2023-04-29T22:36:19.172Z,13.55
2023-04-29T22:41:22.006Z,13.52
2023-04-29T22:46:25.133Z,13.50
2023-04-29T22:51:27.167Z,13.47
2023-04-29T22:56:29.295Z,13.43
2023-04-29T23:01:31.392Z,13.40
2023-04-29T23:06:36.402Z,13.37
2023-04-29T23:11:38.967Z,13.35
2023-04-29T23:16:41.117Z,13.31
2023-04-29T23:21:43.124Z,13.26
2023-04-29T23:26:45.144Z,13.24
2023-04-29T23:31:47.227Z,13.20
2023-04-29T23:36:49.426Z,13.14
2023-04-29T23:41:52.082Z,13.10
2023-04-29T23:46:54.310Z,13.04
2023-04-29T23:51:56.399Z,13.01
2023-04-29T23:56:58.481Z,12.96
